sensor_id;sensor_type;location;lat;lon;timestamp;pressure;altitude;pressure_sealevel;temperature;humidity
12146;BME280;6136;47.032;15.398;2023-06-01T00:01:34;97751.41;;;16.87;100.00
12146;BME280;6136;47.032;15.398;2023-06-01T00:04:05;97758.47;;;16.88;100.00
12146;BME280;6136;47.032;15.398;2023-06-01T00:06:34;97753.97;;;16.89;100.00
12146;BME280;6136;47.032;15.398;2023-06-01T00:09:04;97744.03;;;16.80;100.00
12146;BME280;6136;47.032;15.398;2023-06-01T00:11:33;97742.31;;;16.79;100.00
12146;BME280;6136;47.032;15.398;2023-06-01T00:14:02;97744.16;;;16.78;100.00
12146;BME280;6136;47.032;15.398;2023-06-01T00:16:31;97751.94;;;16.81;100.00
12146;BME280;6136;47.032;15.398;2023-06-01T00:19:00;97749.38;;;16.80;100.00
12146;BME280;6136;47.032;15.398;2023-06-01T00:21:30;97753.03;;;16.79;100.00
12146;BME280;6136;47.032;15.398;2023-06-01T00:24:00;97750.34;;;16.79;100.00
12146;BME280;6136;47.032;15.398;2023-06-01T00:26:30;97754.75;;;16.80;100.00
12146;BME280;6136;47.032;15.398;2023-06-01T00:28:59;97750.34;;;16.79;100.00
12146;BME280;6136;47.032;15.398;2023-06-01T00:31:27;97743.56;;;16.75;100.00
12146;BME280;6136;47.032;15.398;2023-06-01T00:33:56;97739.91;;;16.76;100.00
12146;BME280;6136;47.032;15.398;2023-06-01T00:36:24;97745.13;;;16.77;100.00
12146;BME280;6136;47.032;15.398;2023-06-01T00:38:54;97738.06;;;16.76;100.00
12146;BME280;6136;47.032;15.398;2023-06-01T00:41:32;97735.28;;;16.78;100.00
12146;BME280;6136;47.032;15.398;2023-06-01T00:44:01;97731.75;;;16.77;100.00
12146;BME280;6136;47.032;15.398;2023-06-01T00:46:30;97723.59;;;16.79;100.00
12146;BME280;6136;47.032;15.398;2023-06-01T00:48:59;97730.91;;;16.77;100.00
12146;BME280;6136;47.032;15.398;2023-06-01T00:51:27;97732.88;;;16.75;100.00
12146;BME280;6136;47.032;15.398;2023-06-01T00:53:56;97730.19;;;16.75;100.00
12146;BME280;6136;47.032;15.398;2023-06-01T00:56:24;97731.16;;;16.74;100.00
12146;BME280;6136;47.032;15.398;2023-06-01T00:58:54;97735.91;;;16.70;100.00
12146;BME280;6136;47.032;15.398;2023-06-01T01:01:23;97726.91;;;16.71;100.00
12146;BME280;6136;47.032;15.398;2023-06-01T01:03:53;97728.00;;;16.68;100.00
12146;BME280;6136;47.032;15.398;2023-06-01T01:06:37;97728.06;;;16.57;100.00
12146;BME280;6136;47.032;15.398;2023-06-01T01:09:17;97738.50;;;16.60;100.00
12146;BME280;6136;47.032;15.398;2023-06-01T01:11:52;97740.44;;;16.58;100.00
12146;BME280;6136;47.032;15.398;2023-06-01T01:14:31;97734.13;;;16.59;100.00
12146;BME280;6136;47.032;15.398;2023-06-01T01:17:07;97735.34;;;16.55;100.00
12146;BME280;6136;47.032;15.398;2023-06-01T01:19:54;97727.44;;;16.54;100.00
12146;BME280;6136;47.032;15.398;2023-06-01T01:22:36;97727.97;;;16.48;100.00
12146;BME280;6136;47.032;15.398;2023-06-01T01:25:21;97725.16;;;16.49;100.00
12146;BME280;6136;47.032;15.398;2023-06-01T01:28:08;97732.72;;;16.44;100.00
12146;BME280;6136;47.032;15.398;2023-06-01T01:30:41;97718.41;;;16.34;100.00
12146;BME280;6136;47.032;15.398;2023-06-01T01:33:10;97729.84;;;16.36;100.00
12146;BME280;6136;47.032;15.398;2023-06-01T01:35:40;97725.72;;;16.32;100.00
12146;BME280;6136;47.032;15.398;2023-06-01T01:38:10;97723.31;;;16.29;100.00
12146;BME280;6136;47.032;15.398;2023-06-01T01:40:38;97719.06;;;16.26;100.00
12146;BME280;6136;47.032;15.398;2023-06-01T01:43:07;97724.63;;;16.23;100.00
12146;BME280;6136;47.032;15.398;2023-06-01T01:45:36;97729.13;;;16.23;100.00
12146;BME280;6136;47.032;15.398;2023-06-01T01:48:13;97723.31;;;16.18;100.00
12146;BME280;6136;47.032;15.398;2023-06-01T01:50:50;97724.81;;;16.11;100.00
12146;BME280;6136;47.032;15.398;2023-06-01T01:53:21;97725.06;;;16.08;100.00
12146;BME280;6136;47.032;15.398;2023-06-01T01:55:51;97712.44;;;15.99;100.00
12146;BME280;6136;47.032;15.398;2023-06-01T01:58:22;97716.84;;;16.00;100.00
12146;BME280;6136;47.032;15.398;2023-06-01T02:00:52;97714.06;;;15.90;100.00
12146;BME280;6136;47.032;15.398;2023-06-01T02:03:22;97704.84;;;15.83;100.00
12146;BME280;6136;47.032;15.398;2023-06-01T02:05:51;97708.13;;;15.75;100.00
12146;BME280;6136;47.032;15.398;2023-06-01T02:08:20;97703.28;;;15.69;100.00
12146;BME280;6136;47.032;15.398;2023-06-01T02:10:48;97706.06;;;15.68;100.00
12146;BME280;6136;47.032;15.398;2023-06-01T02:13:17;97703.91;;;15.62;100.00
12146;BME280;6136;47.032;15.398;2023-06-01T02:15:45;97695.53;;;15.55;100.00
12146;BME280;6136;47.032;15.398;2023-06-01T02:18:14;97690.78;;;15.47;100.00
12146;BME280;6136;47.032;15.398;2023-06-01T02:20:46;97691.97;;;15.43;100.00
12146;BME280;6136;47.032;15.398;2023-06-01T02:23:14;97693.09;;;15.41;100.00
12146;BME280;6136;47.032;15.398;2023-06-01T02:25:43;97690.16;;;15.33;100.00
12146;BME280;6136;47.032;15.398;2023-06-01T02:28:11;97685.28;;;15.27;100.00
12146;BME280;6136;47.032;15.398;2023-06-01T02:30:40;97686.03;;;15.18;100.00
12146;BME280;6136;47.032;15.398;2023-06-01T02:33:08;97685.53;;;15.12;100.00
12146;BME280;6136;47.032;15.398;2023-06-01T02:35:37;97686.03;;;15.06;100.00
12146;BME280;6136;47.032;15.398;2023-06-01T02:38:06;97688.22;;;15.01;100.00
12146;BME280;6136;47.032;15.398;2023-06-01T02:40:35;97687.84;;;14.95;100.00
12146;BME280;6136;47.032;15.398;2023-06-01T02:43:04;97689.19;;;14.89;100.00
12146;BME280;6136;47.032;15.398;2023-06-01T02:45:32;97685.75;;;14.87;100.00
12146;BME280;6136;47.032;15.398;2023-06-01T02:48:01;97692.44;;;14.82;100.00
12146;BME280;6136;47.032;15.398;2023-06-01T02:50:30;97685.72;;;14.76;100.00
12146;BME280;6136;47.032;15.398;2023-06-01T02:52:58;97681.13;;;14.67;100.00
12146;BME280;6136;47.032;15.398;2023-06-01T02:55:28;97681.81;;;14.58;100.00
12146;BME280;6136;47.032;15.398;2023-06-01T02:58:08;97683.25;;;14.51;100.00
12146;BME280;6136;47.032;15.398;2023-06-01T03:01:09;97682.63;;;14.47;100.00
12146;BME280;6136;47.032;15.398;2023-06-01T03:03:39;97681.06;;;14.45;100.00
12146;BME280;6136;47.032;15.398;2023-06-01T03:06:09;97674.25;;;14.41;100.00
12146;BME280;6136;47.032;15.398;2023-06-01T03:09:00;97678.09;;;14.36;100.00
12146;BME280;6136;47.032;15.398;2023-06-01T03:11:50;97685.56;;;14.31;100.00
12146;BME280;6136;47.032;15.398;2023-06-01T03:14:20;97676.00;;;14.29;100.00
12146;BME280;6136;47.032;15.398;2023-06-01T03:16:48;97683.03;;;14.30;100.00
12146;BME280;6136;47.032;15.398;2023-06-01T03:19:19;97678.78;;;14.27;100.00
12146;BME280;6136;47.032;15.398;2023-06-01T03:21:52;97675.38;;;14.25;100.00
12146;BME280;6136;47.032;15.398;2023-06-01T03:24:21;97679.47;;;14.18;100.00
12146;BME280;6136;47.032;15.398;2023-06-01T03:27:00;97687.56;;;14.17;100.00
12146;BME280;6136;47.032;15.398;2023-06-01T03:29:34;97686.13;;;14.13;100.00
12146;BME280;6136;47.032;15.398;2023-06-01T03:32:03;97683.44;;;14.13;100.00
12146;BME280;6136;47.032;15.398;2023-06-01T03:34:31;97681.84;;;14.10;100.00
12146;BME280;6136;47.032;15.398;2023-06-01T03:37:04;97686.44;;;14.08;100.00
12146;BME280;6136;47.032;15.398;2023-06-01T03:39:32;97697.84;;;14.10;100.00
12146;BME280;6136;47.032;15.398;2023-06-01T03:42:05;97688.03;;;14.11;100.00
12146;BME280;6136;47.032;15.398;2023-06-01T03:44:34;97692.50;;;14.10;100.00
12146;BME280;6136;47.032;15.398;2023-06-01T03:47:03;97697.84;;;14.10;100.00
12146;BME280;6136;47.032;15.398;2023-06-01T03:49:32;97697.63;;;14.13;100.00
12146;BME280;6136;47.032;15.398;2023-06-01T03:52:05;97702.97;;;14.13;100.00
12146;BME280;6136;47.032;15.398;2023-06-01T03:54:34;97706.69;;;14.11;100.00
12146;BME280;6136;47.032;15.398;2023-06-01T03:57:09;97693.06;;;14.03;100.00
12146;BME280;6136;47.032;15.398;2023-06-01T03:59:37;97700.63;;;14.09;100.00
12146;BME280;6136;47.032;15.398;2023-06-01T04:02:06;97688.88;;;14.11;100.00
12146;BME280;6136;47.032;15.398;2023-06-01T04:04:36;97693.75;;;14.17;100.00
12146;BME280;6136;47.032;15.398;2023-06-01T04:07:07;97698.03;;;14.20;100.00
12146;BME280;6136;47.032;15.398;2023-06-01T04:09:36;97695.94;;;14.23;100.00
12146;BME280;6136;47.032;15.398;2023-06-01T04:12:05;97700.97;;;14.28;100.00
12146;BME280;6136;47.032;15.398;2023-06-01T04:14:36;97688.38;;;14.30;100.00
12146;BME280;6136;47.032;15.398;2023-06-01T04:17:05;97688.31;;;14.43;100.00
12146;BME280;6136;47.032;15.398;2023-06-01T04:19:34;97686.03;;;14.49;100.00
12146;BME280;6136;47.032;15.398;2023-06-01T04:22:06;97688.63;;;14.62;100.00
12146;BME280;6136;47.032;15.398;2023-06-01T04:24:35;97675.78;;;14.67;100.00
12146;BME280;6136;47.032;15.398;2023-06-01T04:27:04;97667.66;;;14.68;100.00
12146;BME280;6136;47.032;15.398;2023-06-01T04:29:34;97675.22;;;14.86;100.00
12146;BME280;6136;47.032;15.398;2023-06-01T04:32:08;97680.06;;;14.92;100.00
12146;BME280;6136;47.032;15.398;2023-06-01T04:34:37;97676.91;;;14.98;100.00
12146;BME280;6136;47.032;15.398;2023-06-01T04:37:05;97669.25;;;15.04;100.00
12146;BME280;6136;47.032;15.398;2023-06-01T04:39:34;97682.88;;;15.12;100.00
12146;BME280;6136;47.032;15.398;2023-06-01T04:42:03;97677.06;;;15.19;100.00
12146;BME280;6136;47.032;15.398;2023-06-01T04:44:32;97679.94;;;15.27;100.00
12146;BME280;6136;47.032;15.398;2023-06-01T04:47:03;97681.19;;;15.34;100.00
12146;BME280;6136;47.032;15.398;2023-06-01T04:49:33;97673.66;;;15.39;100.00
12146;BME280;6136;47.032;15.398;2023-06-01T04:52:03;97674.59;;;15.49;100.00
12146;BME280;6136;47.032;15.398;2023-06-01T04:54:32;97676.56;;;15.58;100.00
12146;BME280;6136;47.032;15.398;2023-06-01T04:57:00;97677.66;;;15.67;100.00
12146;BME280;6136;47.032;15.398;2023-06-01T04:59:29;97678.47;;;15.78;100.00
12146;BME280;6136;47.032;15.398;2023-06-01T05:01:57;97678.56;;;15.88;100.00
12146;BME280;6136;47.032;15.398;2023-06-01T05:04:26;97674.75;;;16.02;100.00
12146;BME280;6136;47.032;15.398;2023-06-01T05:06:56;97680.09;;;16.13;100.00
12146;BME280;6136;47.032;15.398;2023-06-01T05:09:24;97678.69;;;16.29;100.00
12146;BME280;6136;47.032;15.398;2023-06-01T05:11:53;97676.81;;;16.41;100.00
12146;BME280;6136;47.032;15.398;2023-06-01T05:14:21;97681.09;;;16.53;100.00
12146;BME280;6136;47.032;15.398;2023-06-01T05:16:50;97677.56;;;16.64;100.00
12146;BME280;6136;47.032;15.398;2023-06-01T05:19:19;97676.19;;;16.69;100.00
12146;BME280;6136;47.032;15.398;2023-06-01T05:21:48;97677.84;;;16.82;100.00
12146;BME280;6136;47.032;15.398;2023-06-01T05:24:19;97680.25;;;16.85;100.00
12146;BME280;6136;47.032;15.398;2023-06-01T05:26:48;97679.25;;;16.86;100.00
12146;BME280;6136;47.032;15.398;2023-06-01T05:29:16;97688.28;;;16.85;100.00
12146;BME280;6136;47.032;15.398;2023-06-01T05:31:45;97680.44;;;16.93;100.00
12146;BME280;6136;47.032;15.398;2023-06-01T05:34:14;97679.84;;;17.10;100.00
12146;BME280;6136;47.032;15.398;2023-06-01T05:36:42;97683.06;;;17.14;100.00
12146;BME280;6136;47.032;15.398;2023-06-01T05:39:11;97676.34;;;17.19;100.00
12146;BME280;6136;47.032;15.398;2023-06-01T05:41:41;97661.84;;;17.22;100.00
12146;BME280;6136;47.032;15.398;2023-06-01T05:44:09;97678.13;;;17.39;100.00
12146;BME280;6136;47.032;15.398;2023-06-01T05:46:38;97683.13;;;17.54;100.00
12146;BME280;6136;47.032;15.398;2023-06-01T05:49:07;97683.75;;;17.67;100.00
12146;BME280;6136;47.032;15.398;2023-06-01T05:51:35;97683.78;;;17.76;100.00
12146;BME280;6136;47.032;15.398;2023-06-01T05:54:05;97683.97;;;17.94;100.00
12146;BME280;6136;47.032;15.398;2023-06-01T05:56:34;97679.03;;;18.09;100.00
12146;BME280;6136;47.032;15.398;2023-06-01T05:59:07;97682.59;;;18.19;100.00
12146;BME280;6136;47.032;15.398;2023-06-01T06:01:36;97680.34;;;18.34;99.08
12146;BME280;6136;47.032;15.398;2023-06-01T06:04:05;97686.84;;;18.41;98.31
12146;BME280;6136;47.032;15.398;2023-06-01T06:06:33;97687.16;;;18.57;97.02
12146;BME280;6136;47.032;15.398;2023-06-01T06:09:02;97681.63;;;18.68;97.50
12146;BME280;6136;47.032;15.398;2023-06-01T06:11:31;97681.75;;;18.76;91.52
12146;BME280;6136;47.032;15.398;2023-06-01T06:13:59;97680.91;;;18.85;94.84
12146;BME280;6136;47.032;15.398;2023-06-01T06:16:29;97683.44;;;18.96;94.19
12146;BME280;6136;47.032;15.398;2023-06-01T06:18:58;97685.91;;;19.17;93.53
12146;BME280;6136;47.032;15.398;2023-06-01T06:21:26;97689.09;;;19.40;96.98
12146;BME280;6136;47.032;15.398;2023-06-01T06:23:54;97685.56;;;19.39;90.18
12146;BME280;6136;47.032;15.398;2023-06-01T06:26:26;97678.88;;;19.44;88.54
12146;BME280;6136;47.032;15.398;2023-06-01T06:28:54;97683.88;;;19.48;89.70
12146;BME280;6136;47.032;15.398;2023-06-01T06:31:23;97686.09;;;19.53;91.94
12146;BME280;6136;47.032;15.398;2023-06-01T06:33:53;97692.22;;;19.72;92.65
12146;BME280;6136;47.032;15.398;2023-06-01T06:36:22;97691.44;;;19.90;91.68
12146;BME280;6136;47.032;15.398;2023-06-01T06:38:50;97688.75;;;19.90;86.64
12146;BME280;6136;47.032;15.398;2023-06-01T06:41:19;97685.53;;;20.04;88.12
12146;BME280;6136;47.032;15.398;2023-06-01T06:43:47;97682.53;;;20.34;90.86
12146;BME280;6136;47.032;15.398;2023-06-01T06:46:16;97683.06;;;20.56;87.16
12146;BME280;6136;47.032;15.398;2023-06-01T06:48:44;97684.50;;;20.68;84.32
12146;BME280;6136;47.032;15.398;2023-06-01T06:51:14;97678.59;;;20.64;77.29
12146;BME280;6136;47.032;15.398;2023-06-01T06:53:42;97683.63;;;21.03;79.82
12146;BME280;6136;47.032;15.398;2023-06-01T06:56:10;97677.28;;;21.38;80.60
12146;BME280;6136;47.032;15.398;2023-06-01T06:58:39;97680.13;;;21.62;77.18
12146;BME280;6136;47.032;15.398;2023-06-01T07:01:09;97678.88;;;21.90;77.43
12146;BME280;6136;47.032;15.398;2023-06-01T07:03:38;97671.75;;;22.31;76.98
12146;BME280;6136;47.032;15.398;2023-06-01T07:06:08;97672.78;;;22.55;72.47
12146;BME280;6136;47.032;15.398;2023-06-01T07:08:38;97665.06;;;22.84;69.95
12146;BME280;6136;47.032;15.398;2023-06-01T07:11:07;97675.03;;;23.08;70.31
12146;BME280;6136;47.032;15.398;2023-06-01T07:13:35;97668.59;;;23.17;62.97
12146;BME280;6136;47.032;15.398;2023-06-01T07:16:05;97680.00;;;23.43;61.52
12146;BME280;6136;47.032;15.398;2023-06-01T07:18:33;97679.53;;;23.56;60.04
12146;BME280;6136;47.032;15.398;2023-06-01T07:21:02;97667.50;;;23.58;55.06
12146;BME280;6136;47.032;15.398;2023-06-01T07:23:30;97674.44;;;24.00;57.44
12146;BME280;6136;47.032;15.398;2023-06-01T07:26:00;97672.06;;;24.59;52.24
12146;BME280;6136;47.032;15.398;2023-06-01T07:28:28;97670.00;;;25.06;51.45
12146;BME280;6136;47.032;15.398;2023-06-01T07:30:57;97679.00;;;25.22;51.65
12146;BME280;6136;47.032;15.398;2023-06-01T07:33:29;97674.59;;;25.21;50.91
12146;BME280;6136;47.032;15.398;2023-06-01T07:35:58;97679.31;;;25.27;47.67
12146;BME280;6136;47.032;15.398;2023-06-01T07:38:26;97679.41;;;25.48;48.39
12146;BME280;6136;47.032;15.398;2023-06-01T07:40:55;97682.22;;;25.40;46.90
12146;BME280;6136;47.032;15.398;2023-06-01T07:43:25;97677.00;;;25.82;44.82
12146;BME280;6136;47.032;15.398;2023-06-01T07:45:53;97675.00;;;26.06;45.39
12146;BME280;6136;47.032;15.398;2023-06-01T07:48:22;97681.81;;;26.31;41.20
12146;BME280;6136;47.032;15.398;2023-06-01T07:50:50;97677.88;;;26.19;42.95
12146;BME280;6136;47.032;15.398;2023-06-01T07:53:20;97677.31;;;26.09;42.84
12146;BME280;6136;47.032;15.398;2023-06-01T07:55:52;97672.63;;;26.32;40.42
12146;BME280;6136;47.032;15.398;2023-06-01T07:58:20;97677.03;;;26.18;39.59
12146;BME280;6136;47.032;15.398;2023-06-01T08:00:50;97673.53;;;25.88;40.68
12146;BME280;6136;47.032;15.398;2023-06-01T08:03:19;97674.72;;;26.15;39.50
12146;BME280;6136;47.032;15.398;2023-06-01T08:05:48;97669.31;;;26.01;40.19
12146;BME280;6136;47.032;15.398;2023-06-01T08:08:17;97674.91;;;26.14;40.65
12146;BME280;6136;47.032;15.398;2023-06-01T08:10:45;97677.50;;;26.22;40.67
12146;BME280;6136;47.032;15.398;2023-06-01T08:13:14;97670.88;;;26.46;38.64
12146;BME280;6136;47.032;15.398;2023-06-01T08:15:42;97671.72;;;26.46;39.60
12146;BME280;6136;47.032;15.398;2023-06-01T08:18:15;97672.00;;;26.51;39.35
12146;BME280;6136;47.032;15.398;2023-06-01T08:20:46;97668.00;;;25.97;44.35
12146;BME280;6136;47.032;15.398;2023-06-01T08:23:15;97668.38;;;26.44;40.42
12146;BME280;6136;47.032;15.398;2023-06-01T08:25:44;97654.69;;;26.52;39.80
12146;BME280;6136;47.032;15.398;2023-06-01T08:28:13;97661.88;;;26.60;39.71
12146;BME280;6136;47.032;15.398;2023-06-01T08:30:41;97655.44;;;26.89;39.15
12146;BME280;6136;47.032;15.398;2023-06-01T08:33:10;97649.72;;;26.84;39.29
12146;BME280;6136;47.032;15.398;2023-06-01T08:35:40;97652.66;;;27.03;39.34
12146;BME280;6136;47.032;15.398;2023-06-01T08:38:08;97656.25;;;26.68;40.29
12146;BME280;6136;47.032;15.398;2023-06-01T08:40:36;97647.78;;;26.99;38.44
12146;BME280;6136;47.032;15.398;2023-06-01T08:43:12;97658.09;;;27.03;38.71
12146;BME280;6136;47.032;15.398;2023-06-01T08:45:44;97655.09;;;26.77;38.89
12146;BME280;6136;47.032;15.398;2023-06-01T08:48:16;97648.03;;;26.83;39.42
12146;BME280;6136;47.032;15.398;2023-06-01T08:50:50;97649.28;;;27.29;38.31
12146;BME280;6136;47.032;15.398;2023-06-01T08:53:21;97652.41;;;26.98;40.75
12146;BME280;6136;47.032;15.398;2023-06-01T08:55:52;97650.88;;;27.17;40.88
12146;BME280;6136;47.032;15.398;2023-06-01T08:58:21;97649.31;;;27.36;38.45
12146;BME280;6136;47.032;15.398;2023-06-01T09:00:50;97654.31;;;27.54;37.43
12146;BME280;6136;47.032;15.398;2023-06-01T09:03:21;97651.81;;;27.31;37.97
12146;BME280;6136;47.032;15.398;2023-06-01T09:05:50;97651.66;;;27.39;38.73
12146;BME280;6136;47.032;15.398;2023-06-01T09:08:19;97643.00;;;27.29;40.55
12146;BME280;6136;47.032;15.398;2023-06-01T09:10:49;97640.25;;;26.94;43.79
12146;BME280;6136;47.032;15.398;2023-06-01T09:13:30;97644.06;;;27.34;38.98
12146;BME280;6136;47.032;15.398;2023-06-01T09:15:59;97649.59;;;27.41;39.07
12146;BME280;6136;47.032;15.398;2023-06-01T09:18:28;97638.22;;;27.65;39.49
12146;BME280;6136;47.032;15.398;2023-06-01T09:21:11;97639.69;;;27.33;40.34
12146;BME280;6136;47.032;15.398;2023-06-01T09:23:40;97634.97;;;27.83;39.05
12146;BME280;6136;47.032;15.398;2023-06-01T09:26:11;97634.47;;;27.66;39.05
12146;BME280;6136;47.032;15.398;2023-06-01T09:28:56;97630.91;;;28.13;37.69
12146;BME280;6136;47.032;15.398;2023-06-01T09:31:35;97636.38;;;28.13;37.70
12146;BME280;6136;47.032;15.398;2023-06-01T09:34:04;97633.91;;;28.25;37.55
12146;BME280;6136;47.032;15.398;2023-06-01T09:36:35;97625.75;;;27.50;40.42
12146;BME280;6136;47.032;15.398;2023-06-01T09:39:06;97614.56;;;28.13;38.03
12146;BME280;6136;47.032;15.398;2023-06-01T09:41:49;97629.94;;;27.80;38.70
12146;BME280;6136;47.032;15.398;2023-06-01T09:44:25;97630.44;;;28.03;37.96
12146;BME280;6136;47.032;15.398;2023-06-01T09:46:55;97623.66;;;28.27;39.64
12146;BME280;6136;47.032;15.398;2023-06-01T09:49:26;97625.81;;;28.58;37.99
12146;BME280;6136;47.032;15.398;2023-06-01T09:52:10;97616.75;;;28.38;38.10
12146;BME280;6136;47.032;15.398;2023-06-01T09:54:44;97614.16;;;28.16;39.78
12146;BME280;6136;47.032;15.398;2023-06-01T09:57:13;97609.25;;;28.66;38.01
12146;BME280;6136;47.032;15.398;2023-06-01T09:59:47;97613.50;;;28.88;38.44
12146;BME280;6136;47.032;15.398;2023-06-01T10:02:18;97609.28;;;29.19;37.63
12146;BME280;6136;47.032;15.398;2023-06-01T10:04:49;97608.84;;;29.48;36.71
12146;BME280;6136;47.032;15.398;2023-06-01T10:07:21;97610.94;;;29.20;36.88
12146;BME280;6136;47.032;15.398;2023-06-01T10:09:53;97600.81;;;28.41;40.00
12146;BME280;6136;47.032;15.398;2023-06-01T10:12:22;97600.81;;;28.35;41.17
12146;BME280;6136;47.032;15.398;2023-06-01T10:14:52;97595.34;;;28.35;40.01
12146;BME280;6136;47.032;15.398;2023-06-01T10:17:20;97594.19;;;28.03;40.67
12146;BME280;6136;47.032;15.398;2023-06-01T10:19:49;97592.28;;;28.97;36.57
12146;BME280;6136;47.032;15.398;2023-06-01T10:22:19;97587.22;;;29.07;37.59
12146;BME280;6136;47.032;15.398;2023-06-01T10:24:47;97587.25;;;28.81;37.98
12146;BME280;6136;47.032;15.398;2023-06-01T10:27:20;97594.56;;;29.20;37.79
12146;BME280;6136;47.032;15.398;2023-06-01T10:29:52;97581.75;;;29.33;36.94
12146;BME280;6136;47.032;15.398;2023-06-01T10:32:51;97587.22;;;28.74;39.53
12146;BME280;6136;47.032;15.398;2023-06-01T10:38:30;97580.47;;;29.49;35.88
12146;BME280;6136;47.032;15.398;2023-06-01T10:41:28;97573.66;;;29.65;35.45
12146;BME280;6136;47.032;15.398;2023-06-01T10:43:58;97574.59;;;29.32;38.20
12146;BME280;6136;47.032;15.398;2023-06-01T10:46:37;97567.94;;;29.93;36.63
12146;BME280;6136;47.032;15.398;2023-06-01T10:49:11;97566.56;;;30.15;35.63
12146;BME280;6136;47.032;15.398;2023-06-01T10:51:39;97572.03;;;30.15;37.14
12146;BME280;6136;47.032;15.398;2023-06-01T10:54:33;97570.09;;;30.54;36.55
12146;BME280;6136;47.032;15.398;2023-06-01T10:57:19;97561.56;;;30.05;36.57
12146;BME280;6136;47.032;15.398;2023-06-01T11:00:13;97558.69;;;30.88;33.79
12146;BME280;6136;47.032;15.398;2023-06-01T11:02:45;97546.47;;;29.96;37.47
12146;BME280;6136;47.032;15.398;2023-06-01T11:05:39;97544.84;;;29.76;35.89
12146;BME280;6136;47.032;15.398;2023-06-01T11:08:08;97549.25;;;30.21;35.77
12146;BME280;6136;47.032;15.398;2023-06-01T11:10:57;97543.72;;;30.66;31.73
12146;BME280;6136;47.032;15.398;2023-06-01T11:13:34;97542.75;;;30.22;32.83
12146;BME280;6136;47.032;15.398;2023-06-01T11:16:31;97542.47;;;29.92;34.75
12146;BME280;6136;47.032;15.398;2023-06-01T11:19:01;97539.03;;;30.10;34.94
12146;BME280;6136;47.032;15.398;2023-06-01T11:21:32;97522.97;;;29.82;33.79
12146;BME280;6136;47.032;15.398;2023-06-01T11:24:09;97536.19;;;29.14;36.44
12146;BME280;6136;47.032;15.398;2023-06-01T11:26:41;97528.88;;;28.62;38.14
12146;BME280;6136;47.032;15.398;2023-06-01T11:29:14;97528.69;;;28.83;35.66
12146;BME280;6136;47.032;15.398;2023-06-01T11:31:44;97537.91;;;29.09;35.57
12146;BME280;6136;47.032;15.398;2023-06-01T11:34:15;97523.22;;;28.83;38.86
12146;BME280;6136;47.032;15.398;2023-06-01T11:36:47;97530.53;;;29.16;36.49
12146;BME280;6136;47.032;15.398;2023-06-01T11:39:20;97523.50;;;29.59;36.99
12146;BME280;6136;47.032;15.398;2023-06-01T11:42:04;97518.75;;;29.80;35.16
12146;BME280;6136;47.032;15.398;2023-06-01T11:44:37;97508.63;;;30.00;34.19
12146;BME280;6136;47.032;15.398;2023-06-01T11:47:07;97505.53;;;30.21;33.08
12146;BME280;6136;47.032;15.398;2023-06-01T11:49:42;97505.56;;;30.15;34.18
12146;BME280;6136;47.032;15.398;2023-06-01T11:52:11;97496.47;;;29.83;35.70
12146;BME280;6136;47.032;15.398;2023-06-01T11:54:40;97509.59;;;29.67;35.94
12146;BME280;6136;47.032;15.398;2023-06-01T11:57:10;97498.13;;;29.90;34.08
12146;BME280;6136;47.032;15.398;2023-06-01T11:59:39;97489.53;;;29.49;37.10
12146;BME280;6136;47.032;15.398;2023-06-01T12:02:18;97484.34;;;29.72;35.86
12146;BME280;6136;47.032;15.398;2023-06-01T12:04:56;97481.94;;;29.89;35.15
12146;BME280;6136;47.032;15.398;2023-06-01T12:07:25;97480.59;;;29.66;38.64
12146;BME280;6136;47.032;15.398;2023-06-01T12:09:54;97472.94;;;29.82;37.72
12146;BME280;6136;47.032;15.398;2023-06-01T12:12:25;97481.97;;;30.20;35.36
12146;BME280;6136;47.032;15.398;2023-06-01T12:14:55;97478.00;;;30.16;34.07
12146;BME280;6136;47.032;15.398;2023-06-01T12:17:24;97480.34;;;29.75;36.24
12146;BME280;6136;47.032;15.398;2023-06-01T12:19:52;97467.16;;;29.65;33.78
12146;BME280;6136;47.032;15.398;2023-06-01T12:22:20;97464.88;;;28.98;35.29
12146;BME280;6136;47.032;15.398;2023-06-01T12:24:50;97461.09;;;28.99;38.94
12146;BME280;6136;47.032;15.398;2023-06-01T12:27:18;97461.50;;;29.09;37.71
12146;BME280;6136;47.032;15.398;2023-06-01T12:29:48;97453.81;;;29.44;34.60
12146;BME280;6136;47.032;15.398;2023-06-01T12:32:18;97453.03;;;29.23;36.64
12146;BME280;6136;47.032;15.398;2023-06-01T12:35:03;97447.53;;;29.30;35.08
12146;BME280;6136;47.032;15.398;2023-06-01T12:37:32;97434.97;;;29.22;38.43
12146;BME280;6136;47.032;15.398;2023-06-01T12:40:01;97438.56;;;29.23;38.25
12146;BME280;6136;47.032;15.398;2023-06-01T12:42:35;97438.47;;;29.49;34.47
12146;BME280;6136;47.032;15.398;2023-06-01T12:45:07;97435.00;;;29.16;34.40
12146;BME280;6136;47.032;15.398;2023-06-01T12:47:36;97426.72;;;28.84;34.76
12146;BME280;6136;47.032;15.398;2023-06-01T12:50:07;97426.69;;;28.91;36.81
12146;BME280;6136;47.032;15.398;2023-06-01T12:52:37;97426.09;;;28.82;36.86
12146;BME280;6136;47.032;15.398;2023-06-01T12:55:07;97413.75;;;28.60;35.57
12146;BME280;6136;47.032;15.398;2023-06-01T12:57:35;97412.69;;;28.81;37.10
12146;BME280;6136;47.032;15.398;2023-06-01T13:00:07;97414.69;;;28.99;37.38
12146;BME280;6136;47.032;15.398;2023-06-01T13:02:36;97404.84;;;29.04;35.44
12146;BME280;6136;47.032;15.398;2023-06-01T13:05:05;97414.50;;;29.00;35.16
12146;BME280;6136;47.032;15.398;2023-06-01T13:07:34;97402.31;;;29.03;34.63
12146;BME280;6136;47.032;15.398;2023-06-01T13:10:02;97409.28;;;28.85;34.01
12146;BME280;6136;47.032;15.398;2023-06-01T13:12:31;97397.38;;;28.60;34.53
12146;BME280;6136;47.032;15.398;2023-06-01T13:14:59;97403.88;;;28.79;36.33
12146;BME280;6136;47.032;15.398;2023-06-01T13:17:31;97391.47;;;28.89;36.66
12146;BME280;6136;47.032;15.398;2023-06-01T13:19:59;97390.88;;;28.68;35.59